Mehmet Bey — 9HUD6 — position and weather

sailwx.info

Track history (hours):
 
Tides and Currents Weather Stations Pressure Air Temp Water Temp Dewpoint Dewpoint Depression Visibility Wind Speed Wind Dir Waves Ship Positions

Mehmet Bey

Last reported at 2015-Feb-24 20:23 UTC. Time now 2015-Mar-03 08:59 UTC.
Position N 41°20' E 029°13'.

Length 131 m; draft 4.8 m.

Type: Cargo ship. MMSI: 248864000.

Date/timePositionNaut miles runAvg speedWind from/ knotsBaromVisibWave heightAir tempDewpointWater temp
2015-Feb-24 20:23N 41°20' E 029°13'21 7.4
2015-Feb-24 17:31N 41°02' E 029°00'5 5.6
2015-Feb-24 16:33N 40°57' E 028°58'3 0.8
2015-Feb-24 12:28N 40°57' E 028°54'0 0.0
2015-Feb-24 10:28N 40°57' E 028°54'0 0.0
2015-Feb-24 08:28N 40°57' E 028°54'0 0.0
2015-Feb-24 02:16N 40°57' E 028°53'0 0.0
2015-Feb-24 01:10N 40°57' E 028°53'0 0.0
2015-Feb-24 00:16N 40°57' E 028°53'0 0.0
2015-Feb-23 23:28N 40°57' E 028°53'0 0.0
2015-Feb-23 22:28N 40°57' E 028°53'0 0.0
2015-Feb-23 20:10N 40°57' E 028°53'0 0.0
2015-Feb-23 18:22N 40°57' E 028°53'0 0.0
2015-Feb-23 17:10N 40°57' E 028°53'0 0.0
2015-Feb-23 16:22N 40°57' E 028°53'0 0.0
2015-Feb-23 15:28N 40°57' E 028°53'0 0.0
2015-Feb-23 14:04N 40°57' E 028°53'0 0.0
2015-Feb-23 10:28N 40°57' E 028°53'0 0.0
2015-Feb-23 08:04N 40°57' E 028°53'  
2015-Feb-16 18:10N 40°53' E 028°36'6 9.6
2015-Feb-16 17:33N 40°54' E 028°44'9 8.8
2015-Feb-16 16:33N 40°57' E 028°55'2 1.8
2015-Feb-16 15:23N 40°59' E 028°55'0 0.0
2015-Feb-16 14:11N 40°59' E 028°55'0 0.0
2015-Feb-16 13:29N 40°59' E 028°55'0 0.0
2015-Feb-16 12:11N 40°59' E 028°55'0 0.0
2015-Feb-16 11:29N 40°59' E 028°55'21 4.2
2015-Feb-16 06:32N 41°18' E 029°07'1 0.1
2015-Feb-15 09:33N 41°19' E 029°07'6 6.0
2015-Feb-15 08:29N 41°24' E 029°13'1 1.0
2015-Feb-15 07:33N 41°25' E 029°13'2 1.0
2015-Feb-15 05:16N 41°27' E 029°13'1 0.9
2015-Feb-15 04:33N 41°28' E 029°13'  
Track history (hours):
 
Tides and Currents Weather Stations Pressure Air Temp Water Temp Dewpoint Dewpoint Depression Visibility Wind Speed Wind Dir Waves Ship Positions

Mehmet Bey

Last reported at 2015-Feb-24 20:23 UTC. Time now 2015-Mar-03 08:59 UTC.
Position N 41°20' E 029°13'.

Length 131 m; draft 4.8 m.

Type: Cargo ship. MMSI: 248864000.

Date/timePositionNaut miles runAvg speedWind from/ knotsBaromVisibWave heightAir tempDewpointWater temp
2015-Feb-24 20:23N 41°20' E 029°13'21 7.4
2015-Feb-24 17:31N 41°02' E 029°00'5 5.6
2015-Feb-24 16:33N 40°57' E 028°58'3 0.8
2015-Feb-24 12:28N 40°57' E 028°54'0 0.0
2015-Feb-24 10:28N 40°57' E 028°54'0 0.0
2015-Feb-24 08:28N 40°57' E 028°54'0 0.0
2015-Feb-24 02:16N 40°57' E 028°53'0 0.0
2015-Feb-24 01:10N 40°57' E 028°53'0 0.0
2015-Feb-24 00:16N 40°57' E 028°53'0 0.0
2015-Feb-23 23:28N 40°57' E 028°53'0 0.0
2015-Feb-23 22:28N 40°57' E 028°53'0 0.0
2015-Feb-23 20:10N 40°57' E 028°53'0 0.0
2015-Feb-23 18:22N 40°57' E 028°53'0 0.0
2015-Feb-23 17:10N 40°57' E 028°53'0 0.0
2015-Feb-23 16:22N 40°57' E 028°53'0 0.0
2015-Feb-23 15:28N 40°57' E 028°53'0 0.0
2015-Feb-23 14:04N 40°57' E 028°53'0 0.0
2015-Feb-23 10:28N 40°57' E 028°53'0 0.0
2015-Feb-23 08:04N 40°57' E 028°53'  
2015-Feb-16 18:10N 40°53' E 028°36'6 9.6
2015-Feb-16 17:33N 40°54' E 028°44'9 8.8
2015-Feb-16 16:33N 40°57' E 028°55'2 1.8
2015-Feb-16 15:23N 40°59' E 028°55'0 0.0
2015-Feb-16 14:11N 40°59' E 028°55'0 0.0
2015-Feb-16 13:29N 40°59' E 028°55'0 0.0
2015-Feb-16 12:11N 40°59' E 028°55'0 0.0
2015-Feb-16 11:29N 40°59' E 028°55'21 4.2
2015-Feb-16 06:32N 41°18' E 029°07'1 0.1
2015-Feb-15 09:33N 41°19' E 029°07'6 6.0
2015-Feb-15 08:29N 41°24' E 029°13'1 1.0
2015-Feb-15 07:33N 41°25' E 029°13'2 1.0
2015-Feb-15 05:16N 41°27' E 029°13'1 0.9
2015-Feb-15 04:33N 41°28' E 029°13'  

Dump ship's entire track history